If you wish to contribute or participate in the discussions about articles you are invited to join SKYbrary as a registered user

 Actions

Pirineus - la Seu d'Urgel airport

From SKYbrary Wiki

LESU
Airport
ICAO: LESU – IATA: LEU
Summary
Name Pirineus - la Seu d'Urgel airport
Region Europe
Territory Spain ES.gif
Location Montferrer i Castellbò, Andorra
Serving Andorra
Elevation 800.1 m
2,625 ft
2,625 ft800.1 m
Coordinates 42° 20' 27.42" N, 1° 24' 39.09" E
Runways
Designator Length Width Surface ROPS
4/22 1340 m4,396.325 ft
30 m98.425 ft
ASP /


METAR
Observation LESU 221530Z 06010KT 030V090 9999 BKN066 15/04 Q0999
Station Aeròdrom dels Pirineus-Alt Urgell Airport
Date/Time 22 April 2019 15:30:00
Wind direction 60°
Wind speed 10 kts
Lowest cloud amount broken clouds
Temperature 15°C
Dew point 4°C
Humidity 47%
QNH 999 hPa
Weather condition n/a

Andorra–La Seu d'Urgell Airport is located in the municipality of Montferrer i Castellbò, in eastern Spain, and serves the city of la Seu d'Urgell and the microstate Principality of Andorra, which is 12 km6.479 nm
12,000 m
39,370.079 ft
north of the airport.

Maps

Terrain

Loading map...

Airport Layout

Loading map...


Accidents & Serious Incidents at or in vicinity of LESU

None on SKYbrary